Time;durP1;ratioP1;P1;durP2;ratioP2;P2;SDS_P1;SDS_P2;PMS_P1;PMS_P2;Temp;Humidity;BMP_temperature;BMP_pressure;BME280_temperature;BME280_humidity;BME280_pressure;Samples;Min_cycle;Max_cycle;Signal;HPM_P1;HPM_P2
2022/08/23 00:01:20;;;;;;;10.85;8.57;;;17.10;99.90;;;;;;5088305;28;20039;-66
2022/08/23 00:03:46;;;;;;;13.48;8.30;;;17.20;99.90;;;;;;5075799;28;20075;-66
2022/08/23 00:06:12;;;;;;;16.27;8.70;;;17.10;99.90;;;;;;5092542;28;20032;-66
2022/08/23 00:08:39;;;;;;;146.55;9.60;;;17.10;99.90;;;;;;5091132;28;20032;-66
2022/08/23 00:11:06;;;;;;;12.98;4.85;;;17.10;99.90;;;;;;5088842;28;20059;-66
2022/08/23 00:13:32;;;;;;;26.58;6.97;;;17.00;99.90;;;;;;5092309;28;20062;-66
2022/08/23 00:15:59;;;;;;;26.67;6.30;;;17.00;99.90;;;;;;5092157;28;20035;-66
2022/08/23 00:18:25;;;;;;;18.75;4.18;;;17.00;99.90;;;;;;5086693;28;20096;-66
2022/08/23 00:20:51;;;;;;;58.05;5.63;;;17.00;99.90;;;;;;5089719;28;20032;-66
2022/08/23 00:23:16;;;;;;;23.60;4.97;;;16.90;99.90;;;;;;5092369;28;20043;-66
2022/08/23 00:25:43;;;;;;;29.85;6.60;;;16.80;99.90;;;;;;5092282;28;20040;-66
2022/08/23 00:28:09;;;;;;;7.53;6.13;;;16.70;99.90;;;;;;5088469;28;20032;-66
2022/08/23 00:30:36;;;;;;;16.30;7.13;;;16.60;99.90;;;;;;5083926;28;20028;-66
2022/08/23 00:33:02;;;;;;;17.02;8.10;;;16.60;99.90;;;;;;5091704;28;20032;-66
2022/08/23 00:35:28;;;;;;;14.52;7.82;;;16.60;99.90;;;;;;5086491;28;20039;-65
2022/08/23 00:37:56;;;;;;;40.88;7.65;;;16.60;99.90;;;;;;5085991;28;20040;-66
2022/08/23 00:40:22;;;;;;;91.93;8.65;;;16.50;99.90;;;;;;5091971;28;20060;-66
2022/08/23 00:48:45;;;;;;;15.52;9.63;;;16.40;99.90;;;;;;5088519;28;20472;-67
2022/08/23 00:51:21;;;;;;;14.55;10.05;;;16.40;99.90;;;;;;5088337;28;20083;-67
2022/08/23 00:53:52;;;;;;;21.55;10.23;;;16.50;99.90;;;;;;5075256;28;20525;-66
2022/08/23 00:56:19;;;;;;;11.70;9.10;;;16.50;99.90;;;;;;5091580;28;20044;-66
2022/08/23 00:58:45;;;;;;;15.25;9.13;;;16.40;99.90;;;;;;5089479;28;20529;-66
2022/08/23 01:01:13;;;;;;;29.38;9.20;;;16.40;99.90;;;;;;5079346;28;20086;-66
2022/08/23 01:03:41;;;;;;;24.17;8.32;;;16.40;99.90;;;;;;5085987;28;20129;-66
2022/08/23 01:06:15;;;;;;;30.70;8.23;;;16.30;99.90;;;;;;5091067;28;20043;-66
2022/08/23 01:08:47;;;;;;;14.68;10.13;;;16.20;99.90;;;;;;5077279;28;20410;-67
2022/08/23 01:11:24;;;;;;;17.80;10.68;;;16.20;99.90;;;;;;5083258;28;20032;-66
2022/08/23 01:14:02;;;;;;;13.90;10.60;;;16.30;99.90;;;;;;5091135;28;20040;-66
2022/08/23 01:16:37;;;;;;;12.70;8.50;;;16.30;99.90;;;;;;5087715;28;21053;-66
2022/08/23 01:19:07;;;;;;;11.35;8.60;;;16.30;99.90;;;;;;5081431;28;20035;-66
2022/08/23 01:21:44;;;;;;;16.80;7.75;;;16.20;99.90;;;;;;5090814;28;20043;-66
2022/08/23 01:24:10;;;;;;;23.77;8.73;;;16.20;99.90;;;;;;5090926;28;20047;-67
2022/08/23 01:26:36;;;;;;;47.58;8.82;;;16.20;99.90;;;;;;5079998;28;20032;-66
2022/08/23 01:29:05;;;;;;;11.35;7.68;;;16.20;99.90;;;;;;5089521;28;20059;-66
2022/08/23 01:31:31;;;;;;;10.23;8.32;;;16.10;99.90;;;;;;5072736;28;20040;-66
2022/08/23 01:34:01;;;;;;;16.38;10.50;;;16.10;99.90;;;;;;5080284;28;20086;-66
2022/08/23 01:36:27;;;;;;;34.60;9.77;;;16.10;99.90;;;;;;5088090;28;20063;-66
2022/08/23 01:38:52;;;;;;;10.35;8.80;;;16.10;99.90;;;;;;5072535;28;20074;-66
2022/08/23 01:41:18;;;;;;;9.23;6.97;;;16.10;99.90;;;;;;5088036;28;20093;-66
2022/08/23 01:43:45;;;;;;;6.90;5.72;;;16.00;99.90;;;;;;5078141;28;20033;-66
2022/08/23 01:46:16;;;;;;;6.63;5.53;;;16.00;99.90;;;;;;5090401;28;20718;-66
2022/08/23 01:48:45;;;;;;;15.75;6.13;;;15.90;99.90;;;;;;5090190;28;20032;-65
2022/08/23 01:51:12;;;;;;;14.05;7.63;;;15.90;99.90;;;;;;5075736;28;20974;-66
2022/08/23 01:53:37;;;;;;;8.55;6.32;;;15.80;99.90;;;;;;5085389;28;20490;-66
2022/08/23 01:56:04;;;;;;;7.75;4.40;;;15.80;99.90;;;;;;5090341;28;20038;-66
2022/08/23 01:58:31;;;;;;;66.45;6.80;;;15.80;99.90;;;;;;5074896;28;20502;-66
2022/08/23 02:00:57;;;;;;;16.35;6.85;;;15.70;99.90;;;;;;5075503;28;20044;-66
2022/08/23 02:03:23;;;;;;;8.25;6.10;;;15.70;99.90;;;;;;5090128;28;20036;-65
2022/08/23 02:05:49;;;;;;;7.70;6.25;;;15.70;99.90;;;;;;5090577;28;20036;-66
2022/08/23 02:11:06;;;;;;;9.27;7.38;;;15.70;99.90;;;;;;5088694;28;20040;-66
2022/08/23 02:13:31;;;;;;;10.50;6.38;;;15.60;99.90;;;;;;5090379;28;20036;-66
2022/08/23 02:15:58;;;;;;;9.98;6.68;;;15.50;99.90;;;;;;5080850;28;20047;-66
2022/08/23 02:18:24;;;;;;;25.58;6.78;;;15.50;99.90;;;;;;5088653;28;20500;-66
2022/08/23 02:20:51;;;;;;;31.55;6.00;;;15.50;99.90;;;;;;5089559;28;20107;-66
2022/08/23 02:23:18;;;;;;;40.08;6.13;;;15.50;99.90;;;;;;5090073;28;20409;-66
2022/08/23 02:25:44;;;;;;;7.22;5.45;;;15.40;99.90;;;;;;5079596;28;20101;-67
2022/08/23 02:28:10;;;;;;;6.13;4.57;;;15.30;99.90;;;;;;5081546;28;20028;-67
2022/08/23 02:30:35;;;;;;;5.15;4.65;;;15.30;99.90;;;;;;5089950;28;20036;-66
2022/08/23 02:33:01;;;;;;;10.23;6.47;;;15.20;99.90;;;;;;5078956;28;20059;-66
2022/08/23 02:35:27;;;;;;;7.70;6.10;;;15.20;99.90;;;;;;5085826;28;20082;-66
2022/08/23 02:37:52;;;;;;;88.25;5.93;;;15.20;99.90;;;;;;5089833;28;20124;-66
2022/08/23 02:40:18;;;;;;;154.77;7.55;;;15.20;99.90;;;;;;5086216;28;20040;-66
2022/08/23 02:42:44;;;;;;;52.50;5.20;;;15.10;99.90;;;;;;5070122;28;20040;-66
2022/08/23 02:45:10;;;;;;;85.70;5.93;;;14.90;99.90;;;;;;5089487;28;20034;-66
2022/08/23 02:47:36;;;;;;;15.23;5.63;;;14.80;99.90;;;;;;5089583;28;20050;-66
2022/08/23 02:50:05;;;;;;;163.95;9.50;;;14.80;99.90;;;;;;5074898;28;20044;-67
2022/08/23 02:52:31;;;;;;;51.85;6.78;;;14.70;99.90;;;;;;5083978;28;20032;-66
2022/08/23 02:54:57;;;;;;;6.35;5.22;;;14.70;99.90;;;;;;5089417;28;20275;-66
2022/08/23 02:57:23;;;;;;;19.35;13.90;;;14.80;99.90;;;;;;5082742;28;20467;-66
2022/08/23 02:59:49;;;;;;;11.60;7.30;;;14.80;99.90;;;;;;5086570;28;20718;-66
2022/08/23 03:02:14;;;;;;;10.15;7.85;;;14.90;99.90;;;;;;5089101;28;20552;-66
2022/08/23 03:04:40;;;;;;;12.32;10.27;;;15.00;99.90;;;;;;5087339;28;20654;-67
2022/08/23 03:07:06;;;;;;;6.70;5.32;;;15.00;99.90;;;;;;5080945;28;20740;-66
2022/08/23 03:09:31;;;;;;;21.00;6.93;;;15.10;99.90;;;;;;5089215;28;20127;-66
2022/08/23 03:11:57;;;;;;;152.52;9.85;;;15.00;99.90;;;;;;5088969;28;20047;-66
2022/08/23 03:14:24;;;;;;;12.02;7.05;;;14.90;99.90;;;;;;5083499;28;20035;-66
2022/08/23 03:16:49;;;;;;;54.47;10.05;;;14.90;99.90;;;;;;5073832;28;20068;-66
2022/08/23 03:19:15;;;;;;;16.88;12.90;;;14.90;99.90;;;;;;5088623;28;20063;-65
2022/08/23 03:21:42;;;;;;;17.20;10.90;;;15.00;99.90;;;;;;5085003;28;20040;-66
2022/08/23 03:24:08;;;;;;;15.70;9.95;;;15.00;99.90;;;;;;5081044;28;20040;-66
2022/08/23 03:26:34;;;;;;;17.50;8.63;;;15.00;99.90;;;;;;5088494;28;20040;-67
2022/08/23 03:29:00;;;;;;;17.33;12.27;;;15.00;99.90;;;;;;5088927;28;20067;-66
2022/08/23 03:31:26;;;;;;;21.90;16.20;;;14.90;99.90;;;;;;5081545;28;20044;-66
2022/08/23 03:33:52;;;;;;;22.38;16.88;;;14.90;99.90;;;;;;5080278;28;20050;-66
2022/08/23 03:36:19;;;;;;;29.38;19.42;;;15.00;99.90;;;;;;5089010;28;20118;-65
2022/08/23 03:38:45;;;;;;;26.73;20.20;;;15.10;99.90;;;;;;5080241;28;20046;-66
2022/08/23 03:41:11;;;;;;;29.17;20.83;;;15.20;99.90;;;;;;5079575;28;20040;-66
2022/08/23 03:43:37;;;;;;;25.92;17.63;;;15.30;99.90;;;;;;5088397;28;20113;-66
2022/08/23 03:46:05;;;;;;;26.00;16.40;;;15.30;99.90;;;;;;5086765;28;20122;-66
2022/08/23 03:48:31;;;;;;;20.85;12.38;;;15.20;99.90;;;;;;5074056;28;20028;-66
2022/08/23 03:50:57;;;;;;;17.50;10.82;;;15.10;99.90;;;;;;5086128;28;20047;-66
2022/08/23 03:53:22;;;;;;;13.60;9.55;;;15.00;99.90;;;;;;5088822;28;20032;-65
2022/08/23 03:55:50;;;;;;;11.95;9.18;;;14.90;99.90;;;;;;5079573;28;20036;-66
2022/08/23 03:58:16;;;;;;;7.13;6.43;;;14.80;99.90;;;;;;5073401;28;20082;-66
2022/08/23 04:00:42;;;;;;;6.80;5.45;;;14.80;99.90;;;;;;5088162;28;20028;-66
2022/08/23 04:03:08;;;;;;;12.63;7.32;;;14.60;99.90;;;;;;5088251;28;20081;-67
2022/08/23 04:05:34;;;;;;;11.40;8.38;;;14.50;99.90;;;;;;5059208;28;20296;-66
2022/08/23 04:08:06;;;;;;;9.05;6.85;;;14.50;99.90;;;;;;5081258;28;20039;-67
2022/08/23 04:10:31;;;;;;;15.05;8.55;;;14.50;99.90;;;;;;5088420;28;20078;-66
2022/08/23 04:12:57;;;;;;;101.10;8.90;;;14.50;99.90;;;;;;5076345;28;20036;-66
2022/08/23 04:15:23;;;;;;;60.03;5.82;;;14.50;99.90;;;;;;5067792;28;20036;-66
2022/08/23 04:17:49;;;;;;;8.95;5.43;;;14.40;99.90;;;;;;5088078;28;20044;-66
2022/08/23 04:20:16;;;;;;;18.45;5.13;;;14.30;99.90;;;;;;5088803;28;20051;-66
2022/08/23 04:22:42;;;;;;;9.40;6.10;;;14.20;99.90;;;;;;5081206;28;20041;-66
2022/08/23 04:25:08;;;;;;;54.47;7.63;;;14.20;99.90;;;;;;5083337;28;20036;-66
2022/08/23 04:27:33;;;;;;;253.70;12.68;;;14.20;99.90;;;;;;5088350;28;20055;-66
2022/08/23 04:29:59;;;;;;;13.48;6.82;;;14.20;99.90;;;;;;5077338;28;20032;-66
2022/08/23 04:32:25;;;;;;;15.00;7.25;;;14.20;99.90;;;;;;5083122;28;20040;-66
2022/08/23 04:34:50;;;;;;;22.25;7.63;;;14.10;99.90;;;;;;5075529;28;20062;-67
2022/08/23 04:37:17;;;;;;;10.40;6.57;;;14.10;99.90;;;;;;5087973;28;20051;-66
2022/08/23 04:42:27;;;;;;;11.00;8.07;;;14.10;99.90;;;;;;5083414;28;20072;-66
2022/08/23 04:44:53;;;;;;;13.48;8.38;;;14.20;99.90;;;;;;5086512;28;20036;-66
2022/08/23 04:47:19;;;;;;;14.23;9.25;;;14.20;99.90;;;;;;5076989;28;20537;-66
2022/08/23 04:49:45;;;;;;;16.73;10.15;;;14.10;99.90;;;;;;5088081;28;20036;-66
2022/08/23 04:52:12;;;;;;;13.45;8.85;;;14.20;99.90;;;;;;5070206;28;20086;-66
2022/08/23 04:54:38;;;;;;;19.40;10.10;;;14.20;99.90;;;;;;5079685;28;20474;-66
2022/08/23 04:57:04;;;;;;;18.88;11.77;;;14.30;99.90;;;;;;5090650;28;20517;-66
2022/08/23 04:59:30;;;;;;;19.42;9.63;;;14.40;99.90;;;;;;5088270;28;20072;-66
2022/08/23 05:01:55;;;;;;;19.67;11.43;;;14.50;99.90;;;;;;5074293;28;20096;-65
2022/08/23 05:04:21;;;;;;;15.77;10.85;;;14.50;99.90;;;;;;5058829;28;20036;-66
2022/08/23 05:06:46;;;;;;;18.08;10.95;;;14.50;99.90;;;;;;5078098;28;20049;-66
2022/08/23 05:09:13;;;;;;;15.82;9.88;;;14.50;99.90;;;;;;5086193;28;20440;-66
2022/08/23 05:11:38;;;;;;;18.70;10.48;;;14.50;99.90;;;;;;5079768;28;20659;-65
2022/08/23 05:14:04;;;;;;;17.55;10.90;;;14.60;99.90;;;;;;5073594;28;20041;-66
2022/08/23 05:16:30;;;;;;;18.33;12.15;;;14.60;99.90;;;;;;5088251;28;20040;-66
2022/08/23 05:18:56;;;;;;;21.85;11.65;;;14.70;99.90;;;;;;5084842;28;20048;-66
2022/08/23 05:21:23;;;;;;;19.33;11.38;;;14.70;99.90;;;;;;5075903;28;20085;-66
2022/08/23 05:23:50;;;;;;;18.38;12.57;;;14.70;99.90;;;;;;5080364;28;20047;-66
2022/08/23 05:26:15;;;;;;;16.70;11.07;;;14.80;99.90;;;;;;5054171;28;20060;-66
2022/08/23 05:28:44;;;;;;;19.00;10.88;;;14.90;99.90;;;;;;5083451;28;20121;-66
2022/08/23 05:31:13;;;;;;;23.60;12.65;;;15.00;99.90;;;;;;5067089;28;20040;-66
2022/08/23 05:33:40;;;;;;;21.05;12.02;;;15.10;99.90;;;;;;5070750;28;20036;-66
2022/08/23 05:36:07;;;;;;;19.00;10.85;;;15.20;99.90;;;;;;5076013;28;20478;-66
2022/08/23 05:38:33;;;;;;;22.50;12.68;;;15.30;99.90;;;;;;5072187;28;20036;-67
2022/08/23 05:41:01;;;;;;;26.88;12.98;;;15.40;99.90;;;;;;5079785;28;20036;-67
2022/08/23 05:43:27;;;;;;;19.50;12.18;;;15.50;99.90;;;;;;5087709;28;20036;-66
2022/08/23 05:46:17;;;;;;;20.42;14.75;;;15.60;99.90;;;;;;5082407;28;20048;-66
2022/08/23 05:48:45;;;;;;;22.48;14.88;;;15.80;99.90;;;;;;5079752;28;20036;-65
2022/08/23 05:51:21;;;;;;;26.20;16.63;;;16.00;99.90;;;;;;5088378;28;20589;-66
2022/08/23 05:53:48;;;;;;;29.58;16.15;;;16.10;99.90;;;;;;5077878;28;20506;-66
2022/08/23 05:56:17;;;;;;;23.40;16.40;;;16.30;99.90;;;;;;5087181;28;20032;-65
2022/08/23 05:58:44;;;;;;;27.00;16.50;;;16.40;99.90;;;;;;5096407;28;20114;-66
2022/08/23 06:01:11;;;;;;;27.73;16.88;;;16.50;99.90;;;;;;5066042;28;20035;-66
2022/08/23 06:03:37;;;;;;;23.90;16.48;;;16.60;99.90;;;;;;5086676;28;20040;-68
2022/08/23 06:06:04;;;;;;;23.05;16.27;;;16.70;99.90;;;;;;5087507;28;20051;-70
2022/08/23 06:08:29;;;;;;;25.25;16.73;;;16.80;99.90;;;;;;5092646;28;20086;-68
2022/08/23 06:11:26;;;;;;;21.23;16.45;;;16.90;99.90;;;;;;5094706;28;20502;-70
2022/08/23 06:13:54;;;;;;;25.20;16.95;;;17.00;99.90;;;;;;5076674;28;20826;-70
2022/08/23 06:16:25;;;;;;;23.90;16.65;;;17.10;99.90;;;;;;5106306;28;20032;-65
2022/08/23 06:18:50;;;;;;;25.52;17.55;;;17.20;99.90;;;;;;5083270;28;20036;-65
2022/08/23 06:21:17;;;;;;;21.95;16.85;;;17.30;99.90;;;;;;5099267;28;20589;-66
2022/08/23 06:23:45;;;;;;;24.50;17.30;;;17.50;99.90;;;;;;5090080;28;20035;-66
2022/08/23 06:26:17;;;;;;;26.42;18.20;;;17.60;99.90;;;;;;5075780;28;20043;-66
2022/08/23 06:28:46;;;;;;;26.92;19.25;;;17.80;99.90;;;;;;5078045;28;20040;-65
2022/08/23 06:31:11;;;;;;;23.63;18.15;;;17.90;99.90;;;;;;5089146;28;20044;-68
2022/08/23 06:33:39;;;;;;;24.40;17.40;;;18.00;99.90;;;;;;5085714;28;20040;-63
2022/08/23 06:36:12;;;;;;;24.52;17.90;;;18.20;99.90;;;;;;5080803;28;20387;-63
2022/08/23 06:38:39;;;;;;;20.60;15.13;;;18.40;99.90;;;;;;5090893;28;20036;-64
2022/08/23 06:41:08;;;;;;;25.45;17.52;;;18.50;99.90;;;;;;5091473;28;20031;-63
2022/08/23 06:43:34;;;;;;;23.00;17.25;;;18.70;99.90;;;;;;5080713;28;20043;-63
2022/08/23 06:46:27;;;;;;;21.92;17.10;;;18.80;99.90;;;;;;5087620;28;20402;-64
2022/08/23 06:48:53;;;;;;;26.55;17.73;;;18.90;99.90;;;;;;5068784;28;20131;-64
2022/08/23 06:51:27;;;;;;;23.67;16.67;;;19.00;99.90;;;;;;5086969;28;20031;-65
2022/08/23 06:53:55;;;;;;;22.80;16.85;;;19.00;99.90;;;;;;5076827;28;20029;-64
2022/08/23 06:56:24;;;;;;;25.83;17.90;;;19.10;99.90;;;;;;5077211;28;20075;-64
2022/08/23 06:58:51;;;;;;;19.73;16.00;;;19.10;99.90;;;;;;5079329;28;20040;-63
2022/08/23 07:01:41;;;;;;;23.52;16.55;;;19.10;99.90;;;;;;5085055;28;20516;-62
2022/08/23 07:04:08;;;;;;;25.58;16.55;;;19.10;99.90;;;;;;5089685;28;20631;-66
2022/08/23 07:06:35;;;;;;;22.30;16.88;;;19.10;99.90;;;;;;5089171;28;20051;-66
2022/08/23 07:09:01;;;;;;;23.88;17.33;;;19.10;99.90;;;;;;5076338;28;20048;-65
2022/08/23 07:11:31;;;;;;;21.33;17.45;;;19.20;99.90;;;;;;5091470;28;20564;-66
2022/08/23 07:14:04;;;;;;;21.83;17.33;;;19.30;99.90;;;;;;5096750;28;20032;-63
2022/08/23 07:16:35;;;;;;;28.20;18.65;;;19.30;99.90;;;;;;5085687;28;20028;-65
2022/08/23 07:19:02;;;;;;;24.80;18.60;;;19.40;99.90;;;;;;5069512;28;20530;-66
2022/08/23 07:21:28;;;;;;;23.33;17.45;;;19.50;99.90;;;;;;5074542;28;20036;-66
2022/08/23 07:23:54;;;;;;;24.73;17.33;;;19.60;99.90;;;;;;5079105;28;20089;-67
2022/08/23 07:26:20;;;;;;;25.23;18.55;;;19.80;99.90;;;;;;5076575;28;20229;-66
2022/08/23 07:28:46;;;;;;;23.40;18.13;;;20.00;99.90;;;;;;5081371;28;20077;-66
2022/08/23 07:31:16;;;;;;;23.40;16.77;;;20.20;99.90;;;;;;5078679;28;20633;-66
2022/08/23 07:33:43;;;;;;;23.52;16.70;;;20.30;99.90;;;;;;5086932;28;20074;-66
2022/08/23 07:36:09;;;;;;;22.00;16.27;;;20.50;99.90;;;;;;5085978;28;20060;-64
2022/08/23 07:38:35;;;;;;;20.20;15.48;;;20.70;99.90;;;;;;5079554;28;20687;-65
2022/08/23 07:41:02;;;;;;;23.40;16.77;;;20.90;99.90;;;;;;5096249;28;20052;-65
2022/08/23 07:43:30;;;;;;;19.40;15.32;;;21.00;99.90;;;;;;5095336;28;20032;-66
2022/08/23 07:45:56;;;;;;;21.17;16.92;;;21.20;99.90;;;;;;5090086;28;20122;-66
2022/08/23 07:48:22;;;;;;;20.38;14.43;;;21.30;99.90;;;;;;5082427;28;20136;-65
2022/08/23 07:50:53;;;;;;;18.42;14.23;;;21.50;99.90;;;;;;5080548;28;20087;-65
2022/08/23 07:53:19;;;;;;;21.73;14.40;;;21.60;99.90;;;;;;5084115;28;20031;-66
2022/08/23 07:55:45;;;;;;;19.50;14.35;;;21.70;99.90;;;;;;5089797;28;20044;-65
2022/08/23 07:58:11;;;;;;;16.02;13.98;;;21.80;99.90;;;;;;5088651;28;20467;-66
2022/08/23 08:00:37;;;;;;;17.25;13.32;;;22.00;99.90;;;;;;5071223;28;20664;-64
2022/08/23 08:03:03;;;;;;;20.13;13.10;;;22.00;99.90;;;;;;5085697;28;20032;-66
2022/08/23 08:05:32;;;;;;;16.58;12.02;;;22.10;99.90;;;;;;5082568;28;20046;-65
2022/08/23 08:07:58;;;;;;;17.48;13.50;;;22.20;99.90;;;;;;5075228;28;20072;-65
2022/08/23 08:10:24;;;;;;;20.75;12.93;;;22.40;99.90;;;;;;5068511;28;20115;-64
2022/08/23 08:12:50;;;;;;;15.50;12.80;;;22.50;99.90;;;;;;5082715;28;20116;-65
2022/08/23 08:15:17;;;;;;;18.58;13.18;;;22.70;99.90;;;;;;5080127;28;20036;-65
2022/08/23 08:17:46;;;;;;;17.42;12.55;;;22.80;99.90;;;;;;5087695;28;20058;-67
2022/08/23 08:20:11;;;;;;;16.73;12.98;;;22.80;99.90;;;;;;5092595;28;20115;-66
2022/08/23 08:22:37;;;;;;;15.23;12.57;;;22.80;99.90;;;;;;5079372;28;20130;-65
2022/08/23 08:25:03;;;;;;;15.63;11.13;;;22.90;99.90;;;;;;5090058;28;20146;-66
2022/08/23 08:27:29;;;;;;;14.57;10.98;;;23.00;99.90;;;;;;5091789;28;20459;-65
2022/08/23 08:29:54;;;;;;;14.93;11.95;;;23.10;99.90;;;;;;5087642;28;20704;-65
2022/08/23 08:32:20;;;;;;;12.95;11.25;;;23.30;99.90;;;;;;5085035;28;20689;-65
2022/08/23 08:34:46;;;;;;;16.30;11.10;;;23.40;99.90;;;;;;5086430;28;20056;-66
2022/08/23 08:37:11;;;;;;;17.02;11.65;;;23.60;99.90;;;;;;5101059;28;20046;-66
2022/08/23 08:39:44;;;;;;;15.45;10.75;;;23.60;99.90;;;;;;5091822;28;20118;-66
2022/08/23 08:42:37;;;;;;;15.30;11.63;;;23.70;99.90;;;;;;5094329;28;20039;-66
2022/08/23 08:45:21;;;;;;;17.33;11.48;;;23.80;99.90;;;;;;5091495;28;20105;-66
2022/08/23 08:48:07;;;;;;;15.80;11.77;;;23.90;99.90;;;;;;5075057;28;20032;-66
2022/08/23 08:50:36;;;;;;;13.57;11.70;;;24.00;99.90;;;;;;5078209;28;20150;-66
2022/08/23 08:53:19;;;;;;;14.40;12.20;;;24.20;99.90;;;;;;5089840;28;20061;-63
2022/08/23 08:55:52;;;;;;;14.55;11.52;;;24.30;99.90;;;;;;5086852;28;20044;-64
2022/08/23 08:58:35;;;;;;;17.17;11.60;;;24.30;99.90;;;;;;5076484;28;20435;-63
2022/08/23 09:01:01;;;;;;;18.92;11.75;;;24.30;99.90;;;;;;5076750;28;20154;-64
2022/08/23 09:03:32;;;;;;;16.40;11.63;;;24.30;99.90;;;;;;5080179;28;20127;-62
2022/08/23 09:06:17;;;;;;;;;;;24.10;99.90;;;;;;5089137;28;20040;-63
2022/08/23 09:09:14;;;;;;;16.20;11.50;;;24.00;99.90;;;;;;5091463;28;19968;-64
2022/08/23 09:11:53;;;;;;;14.85;11.05;;;24.00;99.90;;;;;;5077587;28;20051;-62
2022/08/23 09:14:36;;;;;;;19.85;10.25;;;23.90;99.90;;;;;;5084104;28;20040;-63
2022/08/23 09:17:32;;;;;;;17.17;10.82;;;24.00;99.90;;;;;;5091092;28;20446;-64
2022/08/23 09:20:02;;;;;;;15.60;10.55;;;24.10;99.90;;;;;;5089324;28;20047;-63
2022/08/23 09:22:40;;;;;;;15.40;10.73;;;24.20;99.90;;;;;;5072353;28;20474;-67
2022/08/23 09:25:10;;;;;;;15.23;9.68;;;24.50;99.90;;;;;;5089353;28;20085;-67
2022/08/23 09:27:38;;;;;;;14.32;10.75;;;24.70;99.90;;;;;;5085468;28;20046;-67
2022/08/23 09:30:05;;;;;;;14.57;11.07;;;24.80;99.90;;;;;;5081780;28;20071;-66
2022/08/23 09:32:35;;;;;;;13.55;10.88;;;24.80;99.90;;;;;;5087848;28;20032;-67
2022/08/23 09:35:24;;;;;;;15.77;11.32;;;25.00;99.90;;;;;;5088337;28;20043;-67
2022/08/23 09:38:00;;;;;;;14.02;11.18;;;25.00;97.80;;;;;;5071838;28;20076;-67
2022/08/23 09:40:34;;;;;;;16.25;10.65;;;24.90;99.90;;;;;;5090308;28;20115;-66
2022/08/23 09:43:14;;;;;;;15.93;10.60;;;24.90;99.90;;;;;;5086842;28;20045;-66
2022/08/23 09:45:49;;;;;;;14.95;11.25;;;24.80;99.90;;;;;;5079619;28;20033;-67
2022/08/23 09:48:38;;;;;;;16.65;10.77;;;24.80;99.90;;;;;;5077294;28;20541;-67
2022/08/23 09:51:15;;;;;;;16.55;11.23;;;24.80;99.90;;;;;;5089950;28;20067;-67
2022/08/23 09:53:49;;;;;;;14.55;10.70;;;24.90;99.90;;;;;;5090848;28;20043;-67
2022/08/23 09:56:21;;;;;;;16.05;10.35;;;25.00;99.90;;;;;;5081783;28;20036;-67
2022/08/23 09:58:51;;;;;;;14.43;10.68;;;25.00;99.90;;;;;;5080956;28;20040;-67
2022/08/23 10:01:23;;;;;;;15.70;10.10;;;25.00;99.90;;;;;;5089959;28;20036;-67
2022/08/23 10:04:12;;;;;;;14.05;10.75;;;25.20;99.90;;;;;;5085730;28;20286;-65
2022/08/23 10:06:40;;;;;;;16.48;9.82;;;25.40;99.20;;;;;;5085883;28;20047;-67
2022/08/23 10:09:07;;;;;;;11.27;8.73;;;25.50;99.90;;;;;;5089655;28;20107;-64
2022/08/23 10:11:51;;;;;;;15.32;9.32;;;25.40;99.90;;;;;;5086043;28;20040;-67
2022/08/23 10:14:20;;;;;;;12.10;9.43;;;25.70;98.20;;;;;;5064789;28;20040;-67
2022/08/23 10:17:32;;;;;;;14.60;8.05;;;25.80;99.80;;;;;;5090362;28;20040;-66
2022/08/23 10:20:17;;;;;;;17.98;10.35;;;25.80;97.80;;;;;;5013306;28;20037;-68
2022/08/23 10:22:54;;;;;;;11.73;8.88;;;25.90;99.90;;;;;;5071752;28;20043;-67
2022/08/23 10:25:29;;;;;;;13.90;8.93;;;26.10;99.30;;;;;;5069873;28;20120;-66
2022/08/23 10:31:26;;;;;;;10.15;8.32;;;26.30;97.20;;;;;;5064469;28;20071;-67
2022/08/23 10:34:08;;;;;;;14.75;8.35;;;26.50;96.50;;;;;;5085174;28;20047;-64
2022/08/23 10:36:55;;;;;;;12.88;9.15;;;26.60;94.40;;;;;;5079763;28;20059;-63
2022/08/23 10:39:27;;;;;;;14.23;8.95;;;26.90;98.00;;;;;;5082535;28;20418;-64
2022/08/23 10:42:11;;;;;;;14.57;8.45;;;27.10;97.10;;;;;;5087927;28;20070;-64
2022/08/23 10:44:54;;;;;;;12.02;8.05;;;27.20;94.90;;;;;;5088658;28;20040;-63
2022/08/23 10:47:38;;;;;;;9.50;7.20;;;27.20;95.60;;;;;;5087287;28;20032;-63
2022/08/23 10:50:08;;;;;;;14.45;8.07;;;27.30;96.50;;;;;;5088123;28;20074;-64
2022/08/23 10:52:54;;;;;;;9.98;7.72;;;27.40;97.30;;;;;;5091594;28;20114;-64
2022/08/23 10:55:37;;;;;;;10.05;7.60;;;27.50;94.40;;;;;;5094233;28;20074;-64
2022/08/23 10:58:06;;;;;;;15.93;8.40;;;27.40;91.90;;;;;;5088673;28;20094;-63
2022/08/23 11:00:34;;;;;;;11.60;7.10;;;27.50;96.30;;;;;;5087146;28;20515;-63
2022/08/23 11:03:30;;;;;;;9.00;6.28;;;27.50;96.20;;;;;;5095992;28;20032;-64
2022/08/23 11:06:40;;;;;;;7.47;4.97;;;27.60;93.90;;;;;;5092392;28;20089;-64
2022/08/23 11:09:29;;;;;;;7.05;4.93;;;27.70;94.00;;;;;;5082997;28;20048;-64
2022/08/23 11:12:09;;;;;;;11.93;5.72;;;27.90;92.60;;;;;;5088303;28;20592;-64
2022/08/23 11:15:02;;;;;;;9.60;6.78;;;28.00;94.00;;;;;;5094327;28;20044;-63
2022/08/23 11:17:37;;;;;;;11.27;6.05;;;28.20;92.00;;;;;;5088578;28;20070;-64
2022/08/23 11:20:08;;;;;;;12.18;6.20;;;28.40;92.40;;;;;;5085366;28;20052;-63
2022/08/23 11:22:54;;;;;;;;;;;28.20;92.50;;;;;;5085915;28;20071;-63
2022/08/23 11:25:19;;;;;;;9.63;6.35;;;28.00;87.90;;;;;;5047168;28;19981;-64
2022/08/23 11:27:46;;;;;;;8.00;5.38;;;28.00;93.20;;;;;;5073442;28;20049;-64
2022/08/23 11:30:36;;;;;;;10.18;5.82;;;28.20;93.60;;;;;;5042767;28;20032;-63
2022/08/23 11:33:24;;;;;;;11.45;5.85;;;28.30;88.30;;;;;;5077636;28;20135;-63
2022/08/23 11:36:08;;;;;;;11.27;5.28;;;28.30;87.60;;;;;;5075511;28;20144;-64
2022/08/23 11:38:45;;;;;;;9.00;5.78;;;28.20;90.50;;;;;;5085420;28;20040;-63
2022/08/23 11:41:54;;;;;;;10.07;6.45;;;28.30;91.30;;;;;;5078364;28;20028;-63
2022/08/23 11:44:38;;;;;;;9.48;5.57;;;28.20;89.10;;;;;;5072199;28;20040;-63
2022/08/23 11:47:09;;;;;;;11.18;5.72;;;28.30;91.10;;;;;;5084156;28;20116;-64
2022/08/23 11:49:41;;;;;;;13.65;5.40;;;28.40;91.00;;;;;;5092047;28;20521;-64
2022/08/23 11:52:42;;;;;;;8.40;5.55;;;28.40;90.60;;;;;;5087292;28;20379;-64
2022/08/23 11:55:13;;;;;;;;;;;28.40;91.70;;;;;;4988788;28;20121;-64
2022/08/23 11:58:26;;;;;;;9.82;5.72;;;28.50;86.50;;;;;;5066127;28;19965;-64
2022/08/23 12:01:05;;;;;;;8.07;4.20;;;28.60;83.90;;;;;;5080248;28;20059;-65
2022/08/23 12:03:57;;;;;;;10.07;4.07;;;28.60;91.00;;;;;;5072021;28;20028;-64
2022/08/23 12:06:41;;;;;;;9.00;4.22;;;28.80;86.90;;;;;;5084448;28;20040;-64
2022/08/23 12:09:23;;;;;;;6.53;3.80;;;29.00;90.00;;;;;;5081543;28;20068;-64
2022/08/23 12:11:54;;;;;;;6.43;3.72;;;29.00;82.30;;;;;;5067201;28;20088;-65
2022/08/23 12:14:29;;;;;;;5.30;3.50;;;29.20;86.90;;;;;;5092338;28;20036;-65
2022/08/23 12:16:59;;;;;;;7.63;3.90;;;29.30;82.90;;;;;;5081769;28;20044;-65
2022/08/23 12:19:39;;;;;;;5.57;3.75;;;29.30;87.20;;;;;;5069495;28;20094;-65
2022/08/23 12:22:17;;;;;;;6.60;4.03;;;29.10;76.70;;;;;;5086943;28;20040;-65
2022/08/23 12:24:51;;;;;;;9.43;4.70;;;29.30;82.10;;;;;;5081491;28;20044;-64
2022/08/23 12:27:39;;;;;;;11.57;4.28;;;29.40;81.50;;;;;;5087605;28;20029;-65
2022/08/23 12:30:08;;;;;;;7.07;4.10;;;29.50;78.70;;;;;;5091293;28;20077;-64
2022/08/23 12:32:48;;;;;;;7.75;4.20;;;29.50;82.50;;;;;;5082636;28;20051;-64
2022/08/23 12:35:30;;;;;;;7.22;4.28;;;29.60;74.80;;;;;;5082601;28;20049;-65
2022/08/23 12:38:06;;;;;;;8.13;4.18;;;29.60;76.60;;;;;;5082442;28;20040;-64
2022/08/23 12:40:53;;;;;;;9.18;4.15;;;29.50;74.30;;;;;;5088859;28;20040;-65
2022/08/23 12:43:27;;;;;;;10.82;4.28;;;29.40;73.10;;;;;;5096138;28;20417;-65
2022/08/23 12:45:59;;;;;;;6.13;3.92;;;29.40;72.50;;;;;;5075175;28;20112;-65
2022/08/23 12:48:31;;;;;;;7.15;4.00;;;29.70;77.50;;;;;;5082714;28;20029;-65
2022/08/23 12:51:05;;;;;;;7.38;4.20;;;29.70;73.60;;;;;;5081124;28;20064;-65
2022/08/23 12:53:38;;;;;;;7.25;4.35;;;30.00;76.40;;;;;;5082776;28;20111;-65
2022/08/23 12:56:07;;;;;;;6.75;4.20;;;30.10;74.60;;;;;;5090866;28;20051;-64
2022/08/23 12:58:37;;;;;;;8.85;4.53;;;30.10;77.10;;;;;;5084492;28;20047;-64
2022/08/23 13:01:07;;;;;;;7.03;4.30;;;30.00;75.30;;;;;;5077288;28;20044;-65
2022/08/23 13:03:40;;;;;;;7.63;4.43;;;29.80;75.60;;;;;;5091413;28;20032;-66
2022/08/23 13:06:11;;;;;;;7.32;4.47;;;29.70;76.10;;;;;;5084192;28;20055;-65
2022/08/23 13:08:37;;;;;;;11.85;4.65;;;29.70;75.50;;;;;;5075652;28;20119;-66
2022/08/23 13:11:05;;;;;;;7.15;4.75;;;29.70;77.60;;;;;;5074598;28;20501;-65